Time;durP1;ratioP1;P1;durP2;ratioP2;P2;SDS_P1;SDS_P2;PMS_P1;PMS_P2;Temp;Humidity;BMP_temperature;BMP_pressure;BME280_temperature;BME280_humidity;BME280_pressure;Samples;Min_cycle;Max_cycle;Signal;HPM_P1;HPM_P2
2022/04/13 00:01:14;;;;;;;10.80;6.65;;;15.00;97.90;;;;;;5024918;28;20046;-74
2022/04/13 00:03:41;;;;;;;10.25;6.78;;;14.90;98.10;;;;;;5016730;28;20044;-74
2022/04/13 00:06:07;;;;;;;;;;;14.90;98.10;;;;;;5030336;28;20052;-74
2022/04/13 00:08:32;;;;;;;8.63;6.68;;;14.80;98.90;;;;;;5008695;28;19921;-74
2022/04/13 00:11:00;;;;;;;9.40;6.88;;;14.80;98.30;;;;;;5019458;28;20049;-74
2022/04/13 00:13:31;;;;;;;;;;;14.80;98.90;;;;;;5032377;28;20487;-74
2022/04/13 00:15:56;;;;;;;8.88;7.18;;;14.70;99.90;;;;;;5042794;28;19925;-74
2022/04/13 00:18:22;;;;;;;8.35;6.93;;;14.70;99.30;;;;;;5035902;28;20037;-74
2022/04/13 00:20:48;;;;;;;8.27;6.75;;;14.70;99.30;;;;;;5030313;28;20045;-74
2022/04/13 00:23:13;;;;;;;10.35;7.03;;;14.70;99.30;;;;;;5045425;28;20037;-73
2022/04/13 00:25:41;;;;;;;8.70;6.85;;;14.60;99.80;;;;;;5031388;28;20049;-74
2022/04/13 00:28:09;;;;;;;9.63;7.22;;;14.60;99.90;;;;;;5018234;28;20045;-74
2022/04/13 00:30:35;;;;;;;9.68;7.35;;;14.60;99.90;;;;;;5027557;28;20489;-74
2022/04/13 00:33:01;;;;;;;11.38;6.90;;;14.60;99.90;;;;;;5010465;28;20045;-74
2022/04/13 00:35:27;;;;;;;10.02;6.78;;;14.70;99.70;;;;;;5010751;28;20160;-74
2022/04/13 00:37:52;;;;;;;9.30;6.97;;;14.70;99.80;;;;;;5026178;28;20428;-74
2022/04/13 00:40:21;;;;;;;12.15;7.93;;;14.70;99.40;;;;;;5016042;28;20072;-74
2022/04/13 00:42:47;;;;;;;9.77;7.32;;;14.70;99.40;;;;;;5020060;28;20120;-74
2022/04/13 00:45:13;;;;;;;10.52;7.85;;;14.70;99.20;;;;;;5025573;28;20168;-74
2022/04/13 00:47:40;;;;;;;11.82;7.70;;;14.70;99.80;;;;;;5041679;28;20041;-74
2022/04/13 00:50:10;;;;;;;11.50;7.90;;;14.70;99.70;;;;;;5009196;28;20555;-74
2022/04/13 00:52:40;;;;;;;10.15;8.15;;;14.60;99.90;;;;;;5028846;28;20040;-74
2022/04/13 00:55:08;;;;;;;10.50;7.53;;;14.60;99.90;;;;;;5017147;28;20131;-74
2022/04/13 00:57:36;;;;;;;10.77;7.60;;;14.60;99.90;;;;;;5028579;28;20038;-74
2022/04/13 01:00:04;;;;;;;10.48;7.80;;;14.60;99.90;;;;;;5035300;28;20029;-74
2022/04/13 01:02:31;;;;;;;9.38;7.53;;;14.50;99.90;;;;;;5010422;28;20045;-74
2022/04/13 01:05:02;;;;;;;9.55;8.15;;;14.50;99.90;;;;;;5026215;28;20041;-74
2022/04/13 01:07:27;;;;;;;12.70;7.70;;;14.50;99.90;;;;;;5009640;28;20492;-74
2022/04/13 01:09:54;;;;;;;11.65;7.90;;;14.50;99.90;;;;;;5024681;28;20045;-74
2022/04/13 01:12:20;;;;;;;10.30;8.32;;;14.50;99.90;;;;;;5006571;28;20049;-74
2022/04/13 01:14:45;;;;;;;11.50;8.20;;;14.50;99.90;;;;;;5009883;28;20382;-74
2022/04/13 01:17:11;;;;;;;11.38;8.32;;;14.50;99.90;;;;;;5027549;28;20073;-74
2022/04/13 01:19:39;;;;;;;11.15;8.77;;;14.40;99.90;;;;;;5005055;28;20092;-74
2022/04/13 01:22:17;;;;;;;;;;;14.40;99.90;;;;;;5025570;28;20053;-74
2022/04/13 01:24:43;;;;;;;9.63;8.65;;;14.30;99.90;;;;;;5027523;28;20373;-74
2022/04/13 01:27:09;;;;;;;13.68;8.90;;;14.30;99.90;;;;;;5026262;28;20145;-73
2022/04/13 01:29:34;;;;;;;13.00;8.90;;;14.20;99.90;;;;;;5031291;28;20127;-74
2022/04/13 01:32:00;;;;;;;9.57;8.35;;;14.20;99.90;;;;;;5028533;28;20476;-74
2022/04/13 01:34:26;;;;;;;11.98;9.25;;;14.10;99.90;;;;;;5019208;28;20536;-73
2022/04/13 01:36:51;;;;;;;10.60;8.60;;;14.00;99.90;;;;;;5035787;28;20128;-74
2022/04/13 01:39:17;;;;;;;12.02;8.80;;;14.00;99.90;;;;;;5005494;28;20076;-74
2022/04/13 01:41:43;;;;;;;9.80;8.27;;;13.90;99.90;;;;;;5010620;28;20053;-73
2022/04/13 01:44:08;;;;;;;11.18;8.85;;;13.90;99.90;;;;;;5032292;28;20121;-74
2022/04/13 01:46:34;;;;;;;11.45;9.27;;;13.80;99.90;;;;;;5011945;28;20386;-73
2022/04/13 01:48:59;;;;;;;10.65;8.93;;;13.70;99.90;;;;;;5010174;28;20072;-74
2022/04/13 01:51:25;;;;;;;11.90;9.50;;;13.70;99.90;;;;;;5027106;28;20108;-74
2022/04/13 01:53:51;;;;;;;11.68;9.75;;;13.60;99.90;;;;;;5007556;28;20732;-74
2022/04/13 01:56:17;;;;;;;11.80;9.90;;;13.50;99.90;;;;;;5015048;28;20128;-74
2022/04/13 01:58:43;;;;;;;14.82;9.20;;;13.50;99.90;;;;;;5029097;28;20046;-74
2022/04/13 02:01:08;;;;;;;12.27;9.43;;;13.50;99.90;;;;;;5032868;28;20041;-74
2022/04/13 02:03:34;;;;;;;10.23;9.23;;;13.50;99.90;;;;;;5007221;28;20053;-74
2022/04/13 02:05:59;;;;;;;11.00;9.85;;;13.40;99.90;;;;;;5033346;28;20087;-74
2022/04/13 02:08:28;;;;;;;13.70;10.13;;;13.40;99.90;;;;;;5025435;28;20041;-74
2022/04/13 02:10:54;;;;;;;10.90;9.80;;;13.30;99.90;;;;;;5025146;28;20042;-74
2022/04/13 02:13:22;;;;;;;11.95;10.63;;;13.30;99.90;;;;;;5024555;28;20041;-74
2022/04/13 02:15:48;;;;;;;11.52;10.07;;;13.20;99.90;;;;;;5031018;28;20092;-74
2022/04/13 02:18:14;;;;;;;12.38;10.63;;;13.10;99.90;;;;;;5027488;28;20037;-74
2022/04/13 02:20:40;;;;;;;13.55;10.27;;;13.10;99.90;;;;;;5026115;28;20049;-74
2022/04/13 02:23:06;;;;;;;11.90;10.65;;;13.00;99.90;;;;;;5022623;28;20048;-74
2022/04/13 02:25:33;;;;;;;12.40;11.10;;;13.00;99.90;;;;;;5025834;28;20034;-74
2022/04/13 02:28:00;;;;;;;12.13;10.85;;;13.00;99.90;;;;;;5025463;28;20662;-74
2022/04/13 02:30:29;;;;;;;16.90;10.95;;;13.00;99.90;;;;;;5026061;28;20201;-74
2022/04/13 02:32:55;;;;;;;12.32;10.82;;;12.90;99.90;;;;;;5008149;28;20053;-74
2022/04/13 02:35:20;;;;;;;12.45;11.10;;;12.90;99.90;;;;;;5025571;28;20056;-74
2022/04/13 02:37:46;;;;;;;13.88;10.75;;;12.90;99.90;;;;;;5021073;28;20538;-74
2022/04/13 02:40:12;;;;;;;11.48;10.05;;;12.80;99.90;;;;;;5028272;28;20042;-74
2022/04/13 02:42:38;;;;;;;11.90;9.48;;;12.70;99.90;;;;;;5021987;28;20037;-74
2022/04/13 02:45:04;;;;;;;14.23;10.18;;;12.60;99.90;;;;;;5008724;28;20512;-74
2022/04/13 02:47:34;;;;;;;13.10;10.85;;;12.50;99.90;;;;;;5038545;28;20045;-74
2022/04/13 02:50:02;;;;;;;12.07;10.77;;;12.50;99.90;;;;;;5016904;28;20133;-74
2022/04/13 02:52:31;;;;;;;15.20;11.20;;;12.50;99.90;;;;;;5032945;28;20053;-74
2022/04/13 02:54:57;;;;;;;15.02;12.02;;;12.40;99.90;;;;;;5010054;28;20344;-74
2022/04/13 02:57:23;;;;;;;13.48;12.18;;;12.40;99.90;;;;;;5029495;28;20099;-74
2022/04/13 02:59:49;;;;;;;16.50;12.10;;;12.40;99.90;;;;;;5039843;28;20435;-74
2022/04/13 03:02:18;;;;;;;17.02;13.07;;;12.30;99.90;;;;;;5032826;28;20103;-74
2022/04/13 03:04:46;;;;;;;13.85;12.45;;;12.30;99.90;;;;;;5025026;28;20397;-74
2022/04/13 03:07:13;;;;;;;14.45;12.55;;;12.30;99.90;;;;;;5019366;28;20053;-74
2022/04/13 03:09:39;;;;;;;15.18;13.20;;;12.30;99.90;;;;;;5035969;28;20493;-74
2022/04/13 03:12:07;;;;;;;18.05;13.88;;;12.30;99.90;;;;;;5032621;28;20045;-74
2022/04/13 03:14:32;;;;;;;;;;;12.20;99.90;;;;;;5035826;28;20041;-74
2022/04/13 03:16:58;;;;;;;15.63;13.07;;;12.10;99.90;;;;;;5028810;28;19928;-74
2022/04/13 03:19:24;;;;;;;15.75;13.40;;;12.10;99.90;;;;;;5031651;28;20045;-74
2022/04/13 03:21:51;;;;;;;17.35;13.23;;;12.10;99.90;;;;;;5031163;28;20140;-74
2022/04/13 03:24:18;;;;;;;15.90;14.18;;;12.10;99.90;;;;;;5027200;28;20041;-74
2022/04/13 03:26:43;;;;;;;17.88;14.07;;;12.10;99.90;;;;;;5014738;28;20049;-73
2022/04/13 03:29:09;;;;;;;19.25;15.43;;;12.10;99.90;;;;;;5035873;28;20147;-73
2022/04/13 03:31:35;;;;;;;17.38;15.18;;;12.00;99.90;;;;;;5040793;28;20037;-73
2022/04/13 03:34:01;;;;;;;16.10;14.40;;;12.00;99.90;;;;;;5039342;28;20048;-74
2022/04/13 03:36:27;;;;;;;16.83;14.57;;;12.00;99.90;;;;;;5029671;28;20045;-74
2022/04/13 03:38:52;;;;;;;20.00;15.18;;;12.10;99.90;;;;;;5023577;28;20121;-74
2022/04/13 03:41:18;;;;;;;16.75;14.95;;;12.10;99.90;;;;;;5009291;28;20747;-74
2022/04/13 03:43:44;;;;;;;18.38;15.05;;;12.10;99.90;;;;;;5011082;28;20564;-74
2022/04/13 03:46:09;;;;;;;22.33;15.75;;;12.20;99.90;;;;;;5010177;28;20053;-74
2022/04/13 03:48:35;;;;;;;18.02;14.82;;;12.20;99.90;;;;;;5023930;28;20051;-74
2022/04/13 03:51:01;;;;;;;18.02;15.45;;;12.20;99.90;;;;;;5028303;28;20096;-74
2022/04/13 03:53:27;;;;;;;17.92;15.23;;;12.20;99.90;;;;;;5024847;28;20045;-74
2022/04/13 03:55:52;;;;;;;19.40;14.43;;;12.20;99.90;;;;;;5005749;28;20400;-74
2022/04/13 03:58:18;;;;;;;22.75;14.60;;;12.20;99.90;;;;;;5011015;28;20038;-74
2022/04/13 04:00:43;;;;;;;22.00;15.32;;;12.20;99.90;;;;;;5011640;28;20076;-74
2022/04/13 04:03:09;;;;;;;16.75;14.75;;;12.20;99.90;;;;;;5012326;28;20084;-74
2022/04/13 04:05:35;;;;;;;20.40;14.70;;;12.30;99.90;;;;;;5029831;28;20496;-74
2022/04/13 04:08:00;;;;;;;18.45;14.48;;;12.30;99.90;;;;;;5012090;28;20052;-74
2022/04/13 04:10:26;;;;;;;18.23;14.40;;;12.30;99.90;;;;;;5028447;28;20856;-74
2022/04/13 04:12:51;;;;;;;21.33;15.13;;;12.30;99.90;;;;;;5013850;28;20045;-74
2022/04/13 04:15:17;;;;;;;17.90;14.63;;;12.20;99.90;;;;;;5028694;28;20499;-74
2022/04/13 04:17:42;;;;;;;17.70;14.38;;;12.20;99.90;;;;;;5029507;28;20120;-74
2022/04/13 04:20:09;;;;;;;19.45;15.30;;;12.30;99.90;;;;;;5010689;28;20060;-74
2022/04/13 04:22:36;;;;;;;16.02;13.57;;;12.20;99.90;;;;;;5030295;28;20045;-74
2022/04/13 04:25:03;;;;;;;15.38;13.60;;;12.30;99.90;;;;;;5011439;28;20131;-74
2022/04/13 04:27:29;;;;;;;19.00;14.32;;;12.20;99.90;;;;;;5039705;28;20205;-74
2022/04/13 04:29:54;;;;;;;18.55;13.73;;;12.20;99.90;;;;;;5010079;28;20068;-74
2022/04/13 04:32:20;;;;;;;15.52;13.70;;;12.20;99.90;;;;;;5039568;28;20128;-75
2022/04/13 04:34:45;;;;;;;17.23;14.48;;;12.20;99.90;;;;;;5033078;28;20045;-76
2022/04/13 04:37:11;;;;;;;17.98;14.45;;;12.20;99.90;;;;;;5028298;28;20103;-75
2022/04/13 04:39:37;;;;;;;17.08;14.15;;;12.20;99.90;;;;;;5028064;28;20112;-75
2022/04/13 04:42:04;;;;;;;19.60;14.52;;;12.20;99.90;;;;;;5027959;28;20103;-74
2022/04/13 04:44:30;;;;;;;17.98;14.07;;;12.20;99.90;;;;;;5012407;28;20041;-74
2022/04/13 04:46:55;;;;;;;15.98;14.38;;;12.20;99.90;;;;;;5027446;28;20547;-74
2022/04/13 04:49:21;;;;;;;19.52;14.25;;;12.10;99.90;;;;;;5007841;28;20124;-74
2022/04/13 04:51:49;;;;;;;18.08;14.93;;;12.20;99.90;;;;;;5028623;28;20037;-75
2022/04/13 04:54:18;;;;;;;17.50;14.77;;;12.20;99.90;;;;;;5025601;28;20095;-76
2022/04/13 04:56:43;;;;;;;25.17;15.65;;;12.20;99.90;;;;;;5026570;28;20041;-76
2022/04/13 04:59:09;;;;;;;20.40;15.38;;;12.20;99.90;;;;;;5029006;28;20063;-75
2022/04/13 05:01:35;;;;;;;19.35;14.93;;;12.20;99.90;;;;;;5018237;28;20041;-76
2022/04/13 05:04:00;;;;;;;20.55;15.90;;;12.20;99.90;;;;;;5010052;28;20041;-76
2022/04/13 05:06:29;;;;;;;18.80;15.18;;;12.30;99.90;;;;;;5029067;28;20475;-75
2022/04/13 05:08:55;;;;;;;18.73;15.82;;;12.30;99.90;;;;;;5015059;28;20457;-76
2022/04/13 05:11:22;;;;;;;20.75;15.70;;;12.20;99.90;;;;;;5015482;28;20036;-76
2022/04/13 05:13:48;;;;;;;20.75;15.02;;;12.20;99.90;;;;;;5029867;28;20550;-76
2022/04/13 05:16:15;;;;;;;22.42;14.93;;;12.20;99.90;;;;;;5028508;28;20041;-75
2022/04/13 05:18:42;;;;;;;18.55;14.85;;;12.20;99.90;;;;;;5038983;28;20091;-76
2022/04/13 05:21:08;;;;;;;;;;;12.20;99.90;;;;;;5030531;28;20083;-75
2022/04/13 05:23:36;;;;;;;18.42;14.80;;;12.10;99.90;;;;;;5027552;28;19921;-76
2022/04/13 05:26:02;;;;;;;21.05;15.82;;;12.10;99.90;;;;;;5029764;28;20745;-76
2022/04/13 05:28:29;;;;;;;19.83;15.80;;;12.10;99.90;;;;;;5027137;28;20131;-76
2022/04/13 05:30:55;;;;;;;19.67;15.00;;;12.10;99.90;;;;;;5009677;28;20114;-76
2022/04/13 05:33:20;;;;;;;21.70;14.68;;;12.20;99.90;;;;;;5025944;28;20041;-75
2022/04/13 05:35:46;;;;;;;23.38;15.40;;;12.20;99.90;;;;;;5035157;28;20045;-76
2022/04/13 05:38:12;;;;;;;16.77;14.57;;;12.30;99.90;;;;;;5016324;28;20049;-75
2022/04/13 05:40:37;;;;;;;21.30;14.40;;;12.40;99.90;;;;;;5024330;28;20048;-76
2022/04/13 05:43:03;;;;;;;20.98;15.25;;;12.40;99.90;;;;;;5019886;28;20488;-76
2022/04/13 05:45:32;;;;;;;21.02;14.98;;;12.50;99.90;;;;;;5030415;28;20136;-76
2022/04/13 05:48:00;;;;;;;18.92;15.25;;;12.50;99.90;;;;;;5041834;28;20115;-77
2022/04/13 05:50:27;;;;;;;20.50;15.02;;;12.50;99.90;;;;;;5028925;28;20152;-75
2022/04/13 05:52:52;;;;;;;18.77;15.45;;;12.50;99.90;;;;;;5002834;28;20377;-76
2022/04/13 05:55:18;;;;;;;20.38;15.95;;;12.60;99.90;;;;;;5024607;28;20042;-76
2022/04/13 05:57:44;;;;;;;20.63;15.70;;;12.60;99.90;;;;;;5024277;28;20546;-75
2022/04/13 06:00:12;;;;;;;22.75;15.73;;;12.70;99.90;;;;;;5024070;28;20038;-75
2022/04/13 06:02:40;;;;;;;20.70;15.18;;;12.80;99.90;;;;;;5024631;28;20076;-75
2022/04/13 06:05:06;;;;;;;20.20;15.30;;;12.80;99.90;;;;;;5013038;28;20041;-75
2022/04/13 06:07:33;;;;;;;20.50;15.20;;;12.80;99.90;;;;;;5022044;28;20041;-75
2022/04/13 06:10:02;;;;;;;19.85;15.52;;;12.90;99.90;;;;;;5003305;28;20046;-75
2022/04/13 06:12:28;;;;;;;20.00;15.45;;;13.00;99.90;;;;;;5026762;28;20063;-75
2022/04/13 06:15:08;;;;;;;21.05;15.18;;;13.10;99.90;;;;;;5027288;28;20033;-75
2022/04/13 06:17:34;;;;;;;19.13;15.43;;;13.10;99.90;;;;;;5033272;28;20166;-75
2022/04/13 06:20:00;;;;;;;17.98;15.10;;;13.10;99.90;;;;;;5002396;28;20469;-75
2022/04/13 06:22:26;;;;;;;18.50;15.25;;;13.10;99.90;;;;;;5004391;28;20095;-75
2022/04/13 06:24:51;;;;;;;21.08;15.95;;;13.10;99.90;;;;;;5025335;28;20071;-75
2022/04/13 06:27:21;;;;;;;18.98;15.85;;;13.20;99.90;;;;;;5008031;28;20057;-75
2022/04/13 06:29:49;;;;;;;20.77;15.63;;;13.30;99.90;;;;;;5026868;28;20106;-75
2022/04/13 06:32:15;;;;;;;20.58;15.50;;;13.30;99.90;;;;;;5029974;28;20071;-75
2022/04/13 06:34:43;;;;;;;23.27;16.55;;;13.30;99.90;;;;;;5031069;28;20542;-75
2022/04/13 06:37:09;;;;;;;20.17;16.55;;;13.30;99.90;;;;;;5027562;28;20049;-75
2022/04/13 06:39:35;;;;;;;22.10;17.27;;;13.40;99.90;;;;;;5016907;28;20037;-75
2022/04/13 06:42:00;;;;;;;21.60;17.60;;;13.40;99.90;;;;;;5011189;28;20507;-75
2022/04/13 06:44:27;;;;;;;22.92;17.27;;;13.40;99.90;;;;;;5029679;28;20143;-75
2022/04/13 06:46:53;;;;;;;26.00;17.25;;;13.50;99.90;;;;;;5008545;28;20513;-75
2022/04/13 06:49:18;;;;;;;27.17;17.50;;;13.50;99.90;;;;;;5009108;28;20145;-75
2022/04/13 06:51:44;;;;;;;23.50;17.88;;;13.60;99.90;;;;;;5029276;28;20187;-75
2022/04/13 06:54:10;;;;;;;20.55;16.67;;;13.60;99.90;;;;;;5030187;28;20076;-77
2022/04/13 06:56:39;;;;;;;23.40;16.58;;;13.70;99.90;;;;;;5030148;28;20493;-75
2022/04/13 06:59:05;;;;;;;19.55;17.13;;;13.80;99.90;;;;;;5027378;28;20416;-74
2022/04/13 07:01:31;;;;;;;19.45;16.65;;;13.80;99.90;;;;;;5026863;28;20048;-74
2022/04/13 07:03:56;;;;;;;25.17;16.80;;;13.90;99.90;;;;;;5007892;28;20045;-74
2022/04/13 07:06:22;;;;;;;22.40;16.63;;;14.00;99.90;;;;;;5024290;28;20042;-75
2022/04/13 07:08:47;;;;;;;24.02;17.42;;;14.10;99.90;;;;;;5030282;28;20041;-76
2022/04/13 07:11:13;;;;;;;21.42;17.20;;;14.20;99.90;;;;;;5028188;28;20049;-76
2022/04/13 07:13:39;;;;;;;24.08;16.52;;;14.30;99.90;;;;;;5027069;28;20500;-76
2022/04/13 07:16:04;;;;;;;23.10;16.45;;;14.40;99.90;;;;;;5029306;28;20211;-75
2022/04/13 07:18:30;;;;;;;20.35;16.55;;;14.40;99.90;;;;;;5029229;28;20086;-76
2022/04/13 07:20:55;;;;;;;23.20;17.33;;;14.50;99.90;;;;;;5012823;28;20136;-76
2022/04/13 07:23:21;;;;;;;22.05;15.30;;;14.60;99.90;;;;;;5011005;28;20148;-74
2022/04/13 07:25:47;;;;;;;24.48;16.50;;;14.70;99.90;;;;;;5013671;28;20042;-75
2022/04/13 07:28:13;;;;;;;20.63;16.00;;;14.70;99.90;;;;;;5012029;28;20041;-77
2022/04/13 07:30:38;;;;;;;19.30;15.63;;;14.80;99.90;;;;;;5031033;28;20410;-75
2022/04/13 07:33:05;;;;;;;19.73;13.65;;;14.80;99.90;;;;;;5033839;28;20044;-75
2022/04/13 07:35:32;;;;;;;19.80;12.88;;;14.90;99.90;;;;;;5025460;28;20322;-76
2022/04/13 07:37:58;;;;;;;16.35;11.88;;;15.00;99.90;;;;;;5033002;28;20102;-76
2022/04/13 07:40:25;;;;;;;14.68;10.80;;;15.00;99.90;;;;;;5033144;28;20059;-75
2022/04/13 07:42:50;;;;;;;15.68;11.68;;;15.00;99.90;;;;;;5015934;28;20158;-77
2022/04/13 07:45:16;;;;;;;14.02;10.07;;;15.10;99.90;;;;;;5034055;28;20053;-75
2022/04/13 07:47:42;;;;;;;12.77;8.18;;;15.20;99.90;;;;;;5017183;28;20076;-76
2022/04/13 07:50:12;;;;;;;14.70;7.80;;;15.20;99.90;;;;;;5030599;28;20038;-77
2022/04/13 07:52:40;;;;;;;14.68;8.00;;;15.30;99.90;;;;;;5031150;28;20041;-76
2022/04/13 07:55:07;;;;;;;9.90;7.00;;;15.40;99.90;;;;;;5014914;28;20041;-74
2022/04/13 07:57:33;;;;;;;9.07;6.30;;;15.40;99.90;;;;;;5012912;28;20038;-75
2022/04/13 07:59:59;;;;;;;13.52;7.20;;;15.50;99.90;;;;;;5030157;28;20033;-73
2022/04/13 08:02:24;;;;;;;9.70;6.65;;;15.50;99.90;;;;;;5009166;28;20473;-74
2022/04/13 08:04:50;;;;;;;12.77;7.20;;;15.60;99.90;;;;;;5020674;28;20576;-74
2022/04/13 08:07:16;;;;;;;11.88;7.63;;;15.60;99.90;;;;;;5050135;28;20462;-74
2022/04/13 08:09:42;;;;;;;13.90;8.52;;;15.70;99.90;;;;;;5049778;28;20048;-74
2022/04/13 08:12:10;;;;;;;11.27;8.73;;;15.80;99.90;;;;;;5030988;28;20068;-78
2022/04/13 08:14:36;;;;;;;12.85;8.82;;;15.80;99.90;;;;;;5033557;28;20041;-75
2022/04/13 08:17:03;;;;;;;14.27;9.43;;;15.90;99.90;;;;;;5022358;28;20095;-76
2022/04/13 08:19:32;;;;;;;;;;;16.00;99.90;;;;;;5028933;28;20278;-73
2022/04/13 08:21:58;;;;;;;15.55;9.73;;;16.00;99.90;;;;;;5029151;28;19921;-74
2022/04/13 08:24:23;;;;;;;18.40;9.57;;;16.10;99.90;;;;;;5011650;28;20052;-74
2022/04/13 08:26:49;;;;;;;16.58;10.07;;;16.10;99.90;;;;;;5029871;28;20137;-74
2022/04/13 08:29:14;;;;;;;12.40;8.85;;;16.30;99.90;;;;;;5011846;28;20053;-74
2022/04/13 08:31:40;;;;;;;14.25;9.70;;;16.20;99.90;;;;;;5030653;28;20497;-74
2022/04/13 08:34:06;;;;;;;11.77;9.48;;;16.40;99.90;;;;;;5027970;28;20049;-74
2022/04/13 08:36:31;;;;;;;13.82;9.00;;;16.40;99.90;;;;;;5021342;28;20052;-73
2022/04/13 08:38:57;;;;;;;12.48;8.30;;;16.40;99.90;;;;;;5011965;28;20120;-74
2022/04/13 08:41:38;;;;;;;11.30;7.47;;;16.40;99.90;;;;;;5029694;28;20503;-74
2022/04/13 08:44:14;;;;;;;12.30;7.40;;;16.40;99.90;;;;;;5011446;28;20508;-74
2022/04/13 08:46:42;;;;;;;10.88;7.88;;;16.30;99.90;;;;;;5029709;28;20076;-74
2022/04/13 08:49:11;;;;;;;13.38;7.93;;;16.30;99.90;;;;;;5010962;28;20452;-74
2022/04/13 08:51:38;;;;;;;12.55;7.80;;;16.30;99.90;;;;;;5030520;28;20058;-74
2022/04/13 08:54:10;;;;;;;10.75;8.02;;;16.30;99.90;;;;;;5028305;28;20520;-74
2022/04/13 08:56:38;;;;;;;11.35;8.38;;;16.30;99.90;;;;;;5029314;28;20048;-74
2022/04/13 08:59:32;;;;;;;13.77;8.43;;;16.30;99.90;;;;;;5028829;28;20072;-74
2022/04/13 09:02:11;;;;;;;13.75;9.10;;;16.30;99.90;;;;;;5011941;28;20099;-74
2022/04/13 09:04:38;;;;;;;12.00;8.48;;;16.40;99.90;;;;;;5029977;28;20045;-73
2022/04/13 09:07:04;;;;;;;;;;;16.40;99.90;;;;;;5029032;28;20473;-74
2022/04/13 09:09:58;;;;;;;11.17;7.97;;;16.40;99.90;;;;;;5028818;28;19920;-75
2022/04/13 09:12:25;;;;;;;14.00;9.13;;;16.40;99.90;;;;;;5014973;28;20053;-75
2022/04/13 09:14:52;;;;;;;12.90;9.75;;;16.40;99.90;;;;;;5030171;28;20049;-77
2022/04/13 09:17:18;;;;;;;15.75;9.57;;;16.30;99.90;;;;;;5028595;28;20063;-74
2022/04/13 09:19:46;;;;;;;17.23;10.45;;;16.40;99.90;;;;;;5009991;28;20049;-77
2022/04/13 09:22:12;;;;;;;;;;;16.40;99.90;;;;;;5026228;28;20477;-75
2022/04/13 09:24:39;;;;;;;15.10;9.68;;;16.50;99.90;;;;;;5022042;28;19974;-76
2022/04/13 09:27:05;;;;;;;14.27;9.00;;;16.50;99.90;;;;;;5014914;28;20045;-74
2022/04/13 09:29:31;;;;;;;12.48;9.85;;;16.50;99.90;;;;;;5011882;28;20053;-77
2022/04/13 09:31:57;;;;;;;14.82;10.05;;;16.50;99.90;;;;;;5029739;28;20473;-75
2022/04/13 09:34:22;;;;;;;14.95;9.88;;;16.60;99.90;;;;;;5038230;28;20053;-76
2022/04/13 09:36:48;;;;;;;15.05;10.38;;;16.60;99.90;;;;;;5034619;28;20056;-78
2022/04/13 09:39:15;;;;;;;13.73;10.05;;;16.70;99.90;;;;;;5029121;28;20152;-75
2022/04/13 09:41:41;;;;;;;12.55;10.00;;;16.70;99.90;;;;;;5025711;28;20042;-76
2022/04/13 09:44:13;;;;;;;14.60;10.00;;;16.70;99.90;;;;;;5026330;28;20048;-75
2022/04/13 09:46:40;;;;;;;15.07;9.73;;;16.70;99.90;;;;;;5010707;28;20044;-73
2022/04/13 09:49:12;;;;;;;13.93;9.35;;;16.70;99.90;;;;;;5027625;28;20049;-74
2022/04/13 09:51:39;;;;;;;13.02;9.20;;;16.80;99.90;;;;;;5010127;28;20045;-75
2022/04/13 09:54:07;;;;;;;13.80;9.30;;;16.80;99.90;;;;;;5016968;28;20080;-73
2022/04/13 09:56:33;;;;;;;12.95;8.63;;;16.80;99.90;;;;;;5024697;28;20045;-74
2022/04/13 09:59:03;;;;;;;11.18;8.90;;;16.80;99.90;;;;;;5000194;28;20052;-73
2022/04/13 10:01:28;;;;;;;12.43;8.95;;;16.90;99.90;;;;;;5022993;28;20038;-73
2022/04/13 10:03:55;;;;;;;14.60;9.60;;;17.00;99.90;;;;;;5033606;28;20495;-73
2022/04/13 10:06:33;;;;;;;16.63;10.43;;;17.00;99.90;;;;;;5047856;28;20037;-73
2022/04/13 10:09:16;;;;;;;12.63;8.93;;;17.20;99.90;;;;;;5029099;28;20041;-72
2022/04/13 10:11:58;;;;;;;10.98;8.82;;;17.40;99.90;;;;;;5015696;28;20049;-74
2022/04/13 10:14:23;;;;;;;13.63;9.55;;;17.40;99.90;;;;;;5014615;28;20045;-74
2022/04/13 10:16:52;;;;;;;13.10;8.23;;;17.40;99.90;;;;;;5014330;28;20047;-74
2022/04/13 10:19:20;;;;;;;11.63;8.77;;;17.50;99.90;;;;;;5030320;28;20038;-74
2022/04/13 10:21:48;;;;;;;12.02;7.60;;;17.50;99.90;;;;;;5014686;28;20068;-75
2022/04/13 10:24:26;;;;;;;13.23;8.93;;;17.60;99.90;;;;;;5031388;28;20452;-74
2022/04/13 10:27:04;;;;;;;12.63;8.15;;;17.60;99.90;;;;;;5030613;28;20125;-76
2022/04/13 10:29:32;;;;;;;11.93;8.73;;;17.70;99.90;;;;;;5014690;28;20041;-74
2022/04/13 10:32:08;;;;;;;13.68;8.13;;;17.70;99.90;;;;;;5014360;28;20393;-76
2022/04/13 10:34:48;;;;;;;12.60;8.75;;;17.70;99.90;;;;;;5032413;28;20056;-77
2022/04/13 10:37:16;;;;;;;11.75;8.85;;;17.70;99.90;;;;;;5022677;28;20038;-73
2022/04/13 10:39:45;;;;;;;12.77;9.05;;;17.70;99.90;;;;;;5018851;28;20087;-74
2022/04/13 10:42:12;;;;;;;11.90;9.43;;;17.70;99.90;;;;;;5012209;28;20041;-76
2022/04/13 10:44:42;;;;;;;13.50;10.02;;;17.70;99.90;;;;;;5021422;28;20048;-75
2022/04/13 10:47:10;;;;;;;17.50;9.98;;;17.70;99.90;;;;;;5023180;28;20038;-74
2022/04/13 10:50:10;;;;;;;13.45;9.68;;;17.70;99.90;;;;;;5013510;28;20056;-76
2022/04/13 10:52:57;;;;;;;13.35;9.85;;;17.70;99.90;;;;;;5011759;28;20436;-76
2022/04/13 10:55:24;;;;;;;13.48;9.98;;;17.80;99.90;;;;;;5032064;28;20033;-76
2022/04/13 10:57:53;;;;;;;12.77;9.23;;;17.90;99.90;;;;;;5032330;28;20049;-76
2022/04/13 11:00:20;;;;;;;13.00;9.60;;;17.90;99.90;;;;;;5013248;28;20496;-75
2022/04/13 11:03:00;;;;;;;16.23;9.75;;;17.90;99.90;;;;;;5010232;28;20073;-77
2022/04/13 11:05:27;;;;;;;13.48;8.93;;;17.90;99.90;;;;;;5011254;28;20081;-75
2022/04/13 11:08:14;;;;;;;15.90;9.73;;;17.90;99.90;;;;;;4993782;28;20121;-76
2022/04/13 11:10:42;;;;;;;12.88;9.60;;;17.90;99.90;;;;;;5029226;28;20084;-76
2022/04/13 11:13:07;;;;;;;13.77;9.70;;;17.90;99.90;;;;;;5012891;28;20441;-76
2022/04/13 11:15:45;;;;;;;15.60;9.02;;;17.90;99.90;;;;;;5029891;28;20049;-76
2022/04/13 11:18:13;;;;;;;14.85;9.63;;;17.90;99.90;;;;;;5029610;28;20052;-77
2022/04/13 11:20:59;;;;;;;15.52;9.23;;;17.90;99.90;;;;;;5010754;28;20049;-77
2022/04/13 11:23:54;;;;;;;15.48;9.70;;;18.00;99.90;;;;;;5011267;28;20049;-75
2022/04/13 11:26:26;;;;;;;16.75;9.88;;;17.90;99.90;;;;;;5029086;28;20436;-76
2022/04/13 11:29:13;;;;;;;15.80;10.18;;;17.90;99.90;;;;;;5046311;28;20049;-77
2022/04/13 11:32:00;;;;;;;15.77;10.35;;;18.00;99.90;;;;;;5029280;28;20222;-77
2022/04/13 11:34:49;;;;;;;16.25;11.73;;;18.00;99.90;;;;;;5023951;28;20041;-76
2022/04/13 11:37:18;;;;;;;13.95;10.88;;;18.00;99.90;;;;;;5029501;28;20481;-77
2022/04/13 11:39:59;;;;;;;14.15;10.90;;;18.00;99.90;;;;;;5040987;28;20049;-77
2022/04/13 11:42:34;;;;;;;13.15;10.65;;;17.90;99.90;;;;;;5022905;28;20500;-76
2022/04/13 11:45:13;;;;;;;12.73;9.35;;;17.90;99.90;;;;;;5030508;28;20132;-79
2022/04/13 11:47:44;;;;;;;15.23;8.98;;;17.90;99.90;;;;;;5010556;28;20060;-78
2022/04/13 11:50:12;;;;;;;11.57;8.80;;;17.80;99.90;;;;;;5029076;28;20054;-75
2022/04/13 11:52:49;;;;;;;13.73;8.73;;;17.70;99.90;;;;;;5027461;28;20515;-75
2022/04/13 11:55:21;;;;;;;14.25;8.65;;;17.70;99.90;;;;;;5029785;28;20041;-75
2022/04/13 11:58:05;;;;;;;13.48;8.07;;;17.60;99.90;;;;;;5008865;28;20527;-73
2022/04/13 12:00:57;;;;;;;13.55;8.32;;;17.60;99.90;;;;;;5009137;28;20049;-74
2022/04/13 12:03:30;;;;;;;10.63;8.18;;;17.50;99.90;;;;;;5011954;28;20094;-77
2022/04/13 12:06:03;;;;;;;11.35;8.00;;;17.40;99.90;;;;;;5011918;28;20049;-76
2022/04/13 12:08:28;;;;;;;12.00;8.35;;;17.40;99.90;;;;;;5027995;28;20037;-74
2022/04/13 12:10:55;;;;;;;9.80;7.63;;;17.50;99.90;;;;;;5030804;28;20047;-77
2022/04/13 12:13:22;;;;;;;12.25;8.27;;;17.40;99.90;;;;;;5028898;28;20123;-76
2022/04/13 12:15:55;;;;;;;14.03;8.73;;;17.40;99.90;;;;;;5029968;28;20038;-77
2022/04/13 12:18:24;;;;;;;12.98;8.63;;;17.50;99.90;;;;;;5029951;28;20049;-77
2022/04/13 12:20:52;;;;;;;12.35;8.60;;;17.50;99.90;;;;;;5011725;28;20080;-77
2022/04/13 12:23:27;;;;;;;10.90;8.65;;;17.50;99.90;;;;;;5011736;28;20046;-77
2022/04/13 12:25:55;;;;;;;12.02;8.52;;;17.60;99.90;;;;;;5009839;28;20404;-77
2022/04/13 12:28:25;;;;;;;12.35;8.55;;;17.60;99.90;;;;;;5028406;28;20041;-77
2022/04/13 12:31:20;;;;;;;11.48;8.35;;;17.60;99.90;;;;;;5026379;28;20041;-73
2022/04/13 12:33:46;;;;;;;10.90;8.30;;;17.70;99.90;;;;;;4987916;28;20057;-76
2022/04/13 12:36:12;;;;;;;10.82;8.32;;;17.70;99.90;;;;;;5011561;28;20053;-77
2022/04/13 12:38:41;;;;;;;12.10;7.95;;;17.70;99.90;;;;;;5029303;28;20037;-76
2022/04/13 12:41:10;;;;;;;13.13;8.50;;;17.70;99.90;;;;;;5028539;28;20430;-76